Messwerte Huntingburg

Temperatur

Temperatur
°C
1603072800 22.00 22.00 14
1603076400 23.00 23.00 13
1603080000 0.00 0.00 13
1603083600 1.00 1.00 13
1603087200 2.00 2.00 13
1603090800 3.00 3.00 13
1603094400 4.00 4.00 13
1603098000 5.00 5.00
1603101600 6.00 6.00
1603105200 7.00 7.00
1603108800 8.00 8.00
1603112400 9.00 9.00
1603116000 10.00 10.00 13
1603119600 11.00 11.00 12
1603123200 12.00 12.00 12
1603126800 13.00 13.00
1603130400 14.00 14.00 12
1603134000 15.00 15.00 12
1603137600 16.00 16.00 13
1603141200 17.00 17.00 13
1603144800 18.00 18.00 13
1603148400 19.00 19.00 12
1603152000 20.00 20.00 12
1603155600 21.00 21.00 12

Aktuellste Messwerte

Wettercharakter
Wetter: bedeckt mit Gewittern
Temperatur
11 °C
Feuchtigkeit
100 %
Wind
10 km/hWindrichtung: Nord
Luftdruck
1019 hPa
Messzeit: 19. Oktober 2020, 22.00Datenquelle: METAR

Weitere Messstationen in der Nähe

Messstation Temperatur Entfernung
Evansville 12 °C 55 km
Owensboro 14 °C 60 km
Mount Carmel 11 °C 79 km
Henderson City 12 °C 80 km
Lawrenceville 11 °C 81 km
Fort Knox 18 °C 94 km
Carmi 11 °C 104 km

Wind

Windrichtung Böen Mittelwind
° km/h km/h
1603072800 22.00 21.00 - 22.00 5
1603076400 23.00 22.00 - 23.00 100° 10
1603080000 0.00 23.00 - 0.00 150° 10
1603083600 1.00 0.00 - 1.00 120° 5
1603087200 2.00 1.00 - 2.00 110° 5
1603090800 3.00 2.00 - 3.00 60° 10
1603094400 4.00 3.00 - 4.00 40° 10
1603098000 5.00 4.00 - 5.00
1603101600 6.00 5.00 - 6.00
1603105200 7.00 6.00 - 7.00
1603108800 8.00 7.00 - 8.00
1603112400 9.00 8.00 - 9.00
1603116000 10.00 9.00 - 10.00 0
1603119600 11.00 10.00 - 11.00 300° 10
1603123200 12.00 11.00 - 12.00 310° 5
1603126800 13.00 12.00 - 13.00
1603130400 14.00 13.00 - 14.00 30° 10
1603134000 15.00 14.00 - 15.00 350° 5
1603137600 16.00 15.00 - 16.00 10° 10
1603141200 17.00 16.00 - 17.00 20° 10
1603144800 18.00 17.00 - 18.00 40° 10
1603148400 19.00 18.00 - 19.00 360° 5
1603152000 20.00 19.00 - 20.00 360° 5
1603155600 21.00 20.00 - 21.00 10° 5

Ihre Wetterstation

Fehlt Ihre Wetterstation auf unserem Portal?

Schreiben Sie an network@meteonews.ch

Klima

Wann ist es am wärmsten? Wann regnet es am wenigsten? Unsere Klimadaten geben Auskunft.